Terminal Aerodrome Forecast
Issued by NWS

Home | Current Version | Previous Version | Text Only | Print | Product List | Glossary On
Versions: 1 2 3 4 5 6 7 8 9 10 11 12 13 14
000
FTUS46 KLOX 281700 RRA
TAFBUR
TAF
KBUR 281746Z 2818/2918 12004KT P6SM VCSH SKC
     FM282200 17010KT P6SM BKN150
     FM290400 VRB03KT P6SM SCT150=

USA.gov is the U.S. government's official web portal to all federal, state and local government web resources and services.